sensor_id;sensor_type;location;lat;lon;timestamp;P1;durP1;ratioP1;P2;durP2;ratioP2
20065;SDS011;10193;48.884;9.182;2023-11-19T00:01:32;1.40;;;1.30;;
20065;SDS011;10193;48.884;9.182;2023-11-19T00:03:58;1.50;;;1.40;;
20065;SDS011;10193;48.884;9.182;2023-11-19T00:06:25;1.30;;;1.30;;
20065;SDS011;10193;48.884;9.182;2023-11-19T00:08:54;1.38;;;1.27;;
20065;SDS011;10193;48.884;9.182;2023-11-19T00:11:20;1.33;;;1.30;;
20065;SDS011;10193;48.884;9.182;2023-11-19T00:13:47;1.58;;;1.48;;
20065;SDS011;10193;48.884;9.182;2023-11-19T00:16:14;1.95;;;1.52;;
20065;SDS011;10193;48.884;9.182;2023-11-19T00:18:41;1.60;;;1.50;;
20065;SDS011;10193;48.884;9.182;2023-11-19T00:21:08;1.23;;;1.13;;
20065;SDS011;10193;48.884;9.182;2023-11-19T00:23:35;1.42;;;1.33;;
20065;SDS011;10193;48.884;9.182;2023-11-19T00:26:03;1.33;;;1.23;;
20065;SDS011;10193;48.884;9.182;2023-11-19T00:28:31;1.00;;;0.98;;
20065;SDS011;10193;48.884;9.182;2023-11-19T00:30:58;0.90;;;0.90;;
20065;SDS011;10193;48.884;9.182;2023-11-19T00:33:25;0.70;;;0.70;;
20065;SDS011;10193;48.884;9.182;2023-11-19T00:35:52;1.17;;;0.80;;
20065;SDS011;10193;48.884;9.182;2023-11-19T00:38:18;0.90;;;0.90;;
20065;SDS011;10193;48.884;9.182;2023-11-19T00:40:45;0.77;;;0.77;;
20065;SDS011;10193;48.884;9.182;2023-11-19T00:43:13;0.52;;;0.52;;
20065;SDS011;10193;48.884;9.182;2023-11-19T00:45:40;0.63;;;0.60;;
20065;SDS011;10193;48.884;9.182;2023-11-19T00:48:06;0.50;;;0.50;;
20065;SDS011;10193;48.884;9.182;2023-11-19T00:50:33;0.60;;;0.60;;
20065;SDS011;10193;48.884;9.182;2023-11-19T00:53:00;0.70;;;0.70;;
20065;SDS011;10193;48.884;9.182;2023-11-19T00:55:28;0.50;;;0.50;;
20065;SDS011;10193;48.884;9.182;2023-11-19T00:57:55;1.75;;;0.60;;
20065;SDS011;10193;48.884;9.182;2023-11-19T01:00:23;0.73;;;0.50;;
20065;SDS011;10193;48.884;9.182;2023-11-19T01:02:52;0.50;;;0.50;;
20065;SDS011;10193;48.884;9.182;2023-11-19T01:05:19;0.30;;;0.30;;
20065;SDS011;10193;48.884;9.182;2023-11-19T01:07:49;0.40;;;0.40;;
20065;SDS011;10193;48.884;9.182;2023-11-19T01:10:18;0.52;;;0.52;;
20065;SDS011;10193;48.884;9.182;2023-11-19T01:12:45;1.00;;;0.50;;
20065;SDS011;10193;48.884;9.182;2023-11-19T01:15:12;1.30;;;0.50;;
20065;SDS011;10193;48.884;9.182;2023-11-19T01:17:40;0.50;;;0.50;;
20065;SDS011;10193;48.884;9.182;2023-11-19T01:20:08;0.65;;;0.65;;
20065;SDS011;10193;48.884;9.182;2023-11-19T01:22:38;0.30;;;0.30;;
20065;SDS011;10193;48.884;9.182;2023-11-19T01:25:05;0.55;;;0.40;;
20065;SDS011;10193;48.884;9.182;2023-11-19T01:27:32;0.55;;;0.40;;
20065;SDS011;10193;48.884;9.182;2023-11-19T01:30:00;0.52;;;0.38;;
20065;SDS011;10193;48.884;9.182;2023-11-19T01:32:29;0.30;;;0.30;;
20065;SDS011;10193;48.884;9.182;2023-11-19T01:34:57;0.50;;;0.40;;
20065;SDS011;10193;48.884;9.182;2023-11-19T01:37:24;0.30;;;0.30;;
20065;SDS011;10193;48.884;9.182;2023-11-19T01:39:50;0.45;;;0.20;;
20065;SDS011;10193;48.884;9.182;2023-11-19T01:42:17;0.57;;;0.28;;
20065;SDS011;10193;48.884;9.182;2023-11-19T01:44:54;0.30;;;0.30;;
20065;SDS011;10193;48.884;9.182;2023-11-19T01:47:23;0.30;;;0.30;;
20065;SDS011;10193;48.884;9.182;2023-11-19T01:49:51;0.50;;;0.50;;
20065;SDS011;10193;48.884;9.182;2023-11-19T01:52:19;0.30;;;0.30;;
20065;SDS011;10193;48.884;9.182;2023-11-19T01:54:46;0.15;;;0.15;;
20065;SDS011;10193;48.884;9.182;2023-11-19T01:57:13;0.35;;;0.35;;
20065;SDS011;10193;48.884;9.182;2023-11-19T01:59:40;0.30;;;0.30;;
20065;SDS011;10193;48.884;9.182;2023-11-19T02:02:07;0.40;;;0.40;;
20065;SDS011;10193;48.884;9.182;2023-11-19T02:04:34;0.30;;;0.30;;
20065;SDS011;10193;48.884;9.182;2023-11-19T02:07:01;0.40;;;0.40;;
20065;SDS011;10193;48.884;9.182;2023-11-19T02:09:30;0.30;;;0.30;;
20065;SDS011;10193;48.884;9.182;2023-11-19T02:11:57;0.22;;;0.22;;
20065;SDS011;10193;48.884;9.182;2023-11-19T02:14:25;0.20;;;0.20;;
20065;SDS011;10193;48.884;9.182;2023-11-19T02:16:52;0.30;;;0.30;;
20065;SDS011;10193;48.884;9.182;2023-11-19T02:19:19;0.63;;;0.30;;
20065;SDS011;10193;48.884;9.182;2023-11-19T02:21:45;0.20;;;0.20;;
20065;SDS011;10193;48.884;9.182;2023-11-19T02:24:13;0.20;;;0.20;;
20065;SDS011;10193;48.884;9.182;2023-11-19T02:26:45;0.45;;;0.35;;
20065;SDS011;10193;48.884;9.182;2023-11-19T02:29:29;0.30;;;0.30;;
20065;SDS011;10193;48.884;9.182;2023-11-19T02:31:55;0.40;;;0.40;;
20065;SDS011;10193;48.884;9.182;2023-11-19T02:34:22;0.20;;;0.20;;
20065;SDS011;10193;48.884;9.182;2023-11-19T02:36:49;0.28;;;0.28;;
20065;SDS011;10193;48.884;9.182;2023-11-19T02:39:15;0.20;;;0.20;;
20065;SDS011;10193;48.884;9.182;2023-11-19T02:41:46;0.20;;;0.20;;
20065;SDS011;10193;48.884;9.182;2023-11-19T02:44:15;0.20;;;0.20;;
20065;SDS011;10193;48.884;9.182;2023-11-19T02:46:43;0.40;;;0.20;;
20065;SDS011;10193;48.884;9.182;2023-11-19T02:49:13;0.25;;;0.25;;
20065;SDS011;10193;48.884;9.182;2023-11-19T02:51:39;0.10;;;0.10;;
20065;SDS011;10193;48.884;9.182;2023-11-19T02:54:06;0.20;;;0.20;;
20065;SDS011;10193;48.884;9.182;2023-11-19T02:56:33;0.32;;;0.32;;
20065;SDS011;10193;48.884;9.182;2023-11-19T02:59:02;0.20;;;0.20;;
20065;SDS011;10193;48.884;9.182;2023-11-19T03:01:33;0.30;;;0.30;;
20065;SDS011;10193;48.884;9.182;2023-11-19T03:04:02;1.23;;;0.20;;
20065;SDS011;10193;48.884;9.182;2023-11-19T03:06:29;0.20;;;0.20;;
20065;SDS011;10193;48.884;9.182;2023-11-19T03:08:56;0.63;;;0.40;;
20065;SDS011;10193;48.884;9.182;2023-11-19T03:11:23;0.35;;;0.22;;
20065;SDS011;10193;48.884;9.182;2023-11-19T03:13:50;0.22;;;0.22;;
20065;SDS011;10193;48.884;9.182;2023-11-19T03:16:17;0.30;;;0.30;;
20065;SDS011;10193;48.884;9.182;2023-11-19T03:18:43;0.20;;;0.20;;
20065;SDS011;10193;48.884;9.182;2023-11-19T03:21:11;0.40;;;0.40;;
20065;SDS011;10193;48.884;9.182;2023-11-19T03:23:38;0.20;;;0.20;;
20065;SDS011;10193;48.884;9.182;2023-11-19T03:26:05;0.30;;;0.30;;
20065;SDS011;10193;48.884;9.182;2023-11-19T03:28:33;0.40;;;0.40;;
20065;SDS011;10193;48.884;9.182;2023-11-19T03:30:59;0.30;;;0.30;;
20065;SDS011;10193;48.884;9.182;2023-11-19T03:33:26;0.85;;;0.30;;
20065;SDS011;10193;48.884;9.182;2023-11-19T03:35:53;0.75;;;0.40;;
20065;SDS011;10193;48.884;9.182;2023-11-19T03:38:22;5.13;;;1.25;;
20065;SDS011;10193;48.884;9.182;2023-11-19T03:40:49;2.78;;;1.65;;
20065;SDS011;10193;48.884;9.182;2023-11-19T03:43:15;2.42;;;2.10;;
20065;SDS011;10193;48.884;9.182;2023-11-19T03:45:44;6.53;;;2.30;;
20065;SDS011;10193;48.884;9.182;2023-11-19T03:48:11;18.40;;;2.47;;
20065;SDS011;10193;48.884;9.182;2023-11-19T03:50:38;6.70;;;2.08;;
20065;SDS011;10193;48.884;9.182;2023-11-19T03:53:04;4.30;;;2.40;;
20065;SDS011;10193;48.884;9.182;2023-11-19T03:55:33;4.88;;;2.03;;
20065;SDS011;10193;48.884;9.182;2023-11-19T03:57:59;2.63;;;2.03;;
20065;SDS011;10193;48.884;9.182;2023-11-19T04:00:26;17.10;;;3.00;;
20065;SDS011;10193;48.884;9.182;2023-11-19T04:02:53;8.38;;;2.90;;
20065;SDS011;10193;48.884;9.182;2023-11-19T04:05:19;9.45;;;2.67;;
20065;SDS011;10193;48.884;9.182;2023-11-19T04:07:46;4.38;;;2.53;;
20065;SDS011;10193;48.884;9.182;2023-11-19T04:10:13;2.60;;;2.50;;
20065;SDS011;10193;48.884;9.182;2023-11-19T04:12:42;2.85;;;2.65;;
20065;SDS011;10193;48.884;9.182;2023-11-19T04:15:10;2.53;;;2.42;;
20065;SDS011;10193;48.884;9.182;2023-11-19T04:17:37;2.20;;;2.08;;
20065;SDS011;10193;48.884;9.182;2023-11-19T04:20:04;2.17;;;2.03;;
20065;SDS011;10193;48.884;9.182;2023-11-19T04:22:35;3.17;;;2.97;;
20065;SDS011;10193;48.884;9.182;2023-11-19T04:25:02;2.60;;;2.40;;
20065;SDS011;10193;48.884;9.182;2023-11-19T04:27:29;2.17;;;2.08;;
20065;SDS011;10193;48.884;9.182;2023-11-19T04:29:57;1.98;;;1.88;;
20065;SDS011;10193;48.884;9.182;2023-11-19T04:32:26;1.90;;;1.80;;
20065;SDS011;10193;48.884;9.182;2023-11-19T04:34:53;1.90;;;1.80;;
20065;SDS011;10193;48.884;9.182;2023-11-19T04:37:21;1.83;;;1.73;;
20065;SDS011;10193;48.884;9.182;2023-11-19T04:39:47;1.70;;;1.60;;
20065;SDS011;10193;48.884;9.182;2023-11-19T04:42:14;1.42;;;1.42;;
20065;SDS011;10193;48.884;9.182;2023-11-19T04:44:42;1.90;;;1.80;;
20065;SDS011;10193;48.884;9.182;2023-11-19T04:47:10;1.95;;;1.73;;
20065;SDS011;10193;48.884;9.182;2023-11-19T04:49:39;2.03;;;1.92;;
20065;SDS011;10193;48.884;9.182;2023-11-19T04:52:07;2.08;;;1.95;;
20065;SDS011;10193;48.884;9.182;2023-11-19T04:54:34;2.00;;;1.90;;
20065;SDS011;10193;48.884;9.182;2023-11-19T04:57:01;2.00;;;1.90;;
20065;SDS011;10193;48.884;9.182;2023-11-19T04:59:28;2.13;;;2.03;;
20065;SDS011;10193;48.884;9.182;2023-11-19T05:01:54;2.08;;;1.98;;
20065;SDS011;10193;48.884;9.182;2023-11-19T05:04:22;1.58;;;1.48;;
20065;SDS011;10193;48.884;9.182;2023-11-19T05:06:49;1.02;;;1.02;;
20065;SDS011;10193;48.884;9.182;2023-11-19T05:09:15;1.08;;;1.00;;
20065;SDS011;10193;48.884;9.182;2023-11-19T05:11:43;1.13;;;1.00;;
20065;SDS011;10193;48.884;9.182;2023-11-19T05:14:09;0.70;;;0.70;;
20065;SDS011;10193;48.884;9.182;2023-11-19T05:16:38;0.63;;;0.63;;
20065;SDS011;10193;48.884;9.182;2023-11-19T05:19:05;0.20;;;0.20;;
20065;SDS011;10193;48.884;9.182;2023-11-19T05:21:33;0.30;;;0.30;;
20065;SDS011;10193;48.884;9.182;2023-11-19T05:24:01;0.20;;;0.20;;
20065;SDS011;10193;48.884;9.182;2023-11-19T05:26:29;0.10;;;0.10;;
20065;SDS011;10193;48.884;9.182;2023-11-19T05:28:56;0.10;;;0.10;;
20065;SDS011;10193;48.884;9.182;2023-11-19T05:31:23;0.10;;;0.10;;
20065;SDS011;10193;48.884;9.182;2023-11-19T05:33:49;0.10;;;0.10;;
20065;SDS011;10193;48.884;9.182;2023-11-19T05:36:16;0.10;;;0.10;;
20065;SDS011;10193;48.884;9.182;2023-11-19T05:38:44;0.22;;;0.13;;
20065;SDS011;10193;48.884;9.182;2023-11-19T05:41:11;0.10;;;0.10;;
20065;SDS011;10193;48.884;9.182;2023-11-19T05:43:37;0.10;;;0.10;;
20065;SDS011;10193;48.884;9.182;2023-11-19T05:46:05;0.00;;;0.00;;
20065;SDS011;10193;48.884;9.182;2023-11-19T05:48:32;0.08;;;0.08;;
20065;SDS011;10193;48.884;9.182;2023-11-19T05:50:59;0.90;;;0.10;;
20065;SDS011;10193;48.884;9.182;2023-11-19T05:53:25;0.10;;;0.10;;
20065;SDS011;10193;48.884;9.182;2023-11-19T05:55:53;0.20;;;0.10;;
20065;SDS011;10193;48.884;9.182;2023-11-19T05:58:21;0.10;;;0.10;;
20065;SDS011;10193;48.884;9.182;2023-11-19T06:00:50;0.10;;;0.10;;
20065;SDS011;10193;48.884;9.182;2023-11-19T06:03:17;0.25;;;0.20;;
20065;SDS011;10193;48.884;9.182;2023-11-19T06:05:44;0.10;;;0.10;;
20065;SDS011;10193;48.884;9.182;2023-11-19T06:08:11;1.00;;;0.10;;
20065;SDS011;10193;48.884;9.182;2023-11-19T06:10:39;0.10;;;0.10;;
20065;SDS011;10193;48.884;9.182;2023-11-19T06:13:07;0.10;;;0.10;;
20065;SDS011;10193;48.884;9.182;2023-11-19T06:15:35;0.15;;;0.10;;
20065;SDS011;10193;48.884;9.182;2023-11-19T06:18:02;0.10;;;0.10;;
20065;SDS011;10193;48.884;9.182;2023-11-19T06:20:29;0.10;;;0.10;;
20065;SDS011;10193;48.884;9.182;2023-11-19T06:22:56;0.10;;;0.10;;
20065;SDS011;10193;48.884;9.182;2023-11-19T06:25:23;0.20;;;0.15;;
20065;SDS011;10193;48.884;9.182;2023-11-19T06:27:50;0.10;;;0.10;;
20065;SDS011;10193;48.884;9.182;2023-11-19T06:30:18;0.10;;;0.10;;
20065;SDS011;10193;48.884;9.182;2023-11-19T06:32:45;1.10;;;0.10;;
20065;SDS011;10193;48.884;9.182;2023-11-19T06:35:12;0.10;;;0.10;;
20065;SDS011;10193;48.884;9.182;2023-11-19T06:37:40;0.30;;;0.20;;
20065;SDS011;10193;48.884;9.182;2023-11-19T06:40:07;0.30;;;0.22;;
20065;SDS011;10193;48.884;9.182;2023-11-19T06:42:35;0.13;;;0.10;;
20065;SDS011;10193;48.884;9.182;2023-11-19T06:45:02;0.28;;;0.17;;
20065;SDS011;10193;48.884;9.182;2023-11-19T06:47:30;0.10;;;0.10;;
20065;SDS011;10193;48.884;9.182;2023-11-19T06:49:57;0.75;;;0.15;;
20065;SDS011;10193;48.884;9.182;2023-11-19T06:52:24;0.43;;;0.20;;
20065;SDS011;10193;48.884;9.182;2023-11-19T06:54:51;0.30;;;0.20;;
20065;SDS011;10193;48.884;9.182;2023-11-19T06:57:22;9.27;;;6.10;;
20065;SDS011;10193;48.884;9.182;2023-11-19T07:00:23;2.40;;;2.20;;
20065;SDS011;10193;48.884;9.182;2023-11-19T07:03:02;1.88;;;1.77;;
20065;SDS011;10193;48.884;9.182;2023-11-19T07:05:35;0.80;;;0.80;;
20065;SDS011;10193;48.884;9.182;2023-11-19T07:08:03;1.48;;;0.47;;
20065;SDS011;10193;48.884;9.182;2023-11-19T07:10:32;1.73;;;0.55;;
20065;SDS011;10193;48.884;9.182;2023-11-19T07:12:58;0.60;;;0.47;;
20065;SDS011;10193;48.884;9.182;2023-11-19T07:15:25;0.20;;;0.20;;
20065;SDS011;10193;48.884;9.182;2023-11-19T07:17:52;0.32;;;0.20;;
20065;SDS011;10193;48.884;9.182;2023-11-19T07:20:21;0.40;;;0.38;;
20065;SDS011;10193;48.884;9.182;2023-11-19T07:22:47;0.25;;;0.25;;
20065;SDS011;10193;48.884;9.182;2023-11-19T07:25:14;0.40;;;0.30;;
20065;SDS011;10193;48.884;9.182;2023-11-19T07:27:41;0.17;;;0.17;;
20065;SDS011;10193;48.884;9.182;2023-11-19T07:30:08;0.20;;;0.20;;
20065;SDS011;10193;48.884;9.182;2023-11-19T07:32:35;0.63;;;0.30;;
20065;SDS011;10193;48.884;9.182;2023-11-19T07:35:04;0.28;;;0.25;;
20065;SDS011;10193;48.884;9.182;2023-11-19T07:37:33;0.20;;;0.20;;
20065;SDS011;10193;48.884;9.182;2023-11-19T07:40:00;0.38;;;0.20;;
20065;SDS011;10193;48.884;9.182;2023-11-19T07:42:26;0.35;;;0.35;;
20065;SDS011;10193;48.884;9.182;2023-11-19T07:44:54;0.20;;;0.20;;
20065;SDS011;10193;48.884;9.182;2023-11-19T07:47:22;0.30;;;0.25;;
20065;SDS011;10193;48.884;9.182;2023-11-19T07:49:50;0.20;;;0.20;;
20065;SDS011;10193;48.884;9.182;2023-11-19T07:52:16;0.32;;;0.20;;
20065;SDS011;10193;48.884;9.182;2023-11-19T07:54:44;0.28;;;0.28;;
20065;SDS011;10193;48.884;9.182;2023-11-19T07:57:10;0.43;;;0.43;;
20065;SDS011;10193;48.884;9.182;2023-11-19T07:59:37;0.32;;;0.30;;
20065;SDS011;10193;48.884;9.182;2023-11-19T08:02:04;0.50;;;0.50;;
20065;SDS011;10193;48.884;9.182;2023-11-19T08:04:31;0.82;;;0.82;;
20065;SDS011;10193;48.884;9.182;2023-11-19T08:06:58;0.90;;;0.90;;
20065;SDS011;10193;48.884;9.182;2023-11-19T08:09:25;0.80;;;0.80;;
20065;SDS011;10193;48.884;9.182;2023-11-19T08:11:53;0.98;;;0.98;;
20065;SDS011;10193;48.884;9.182;2023-11-19T08:14:21;0.82;;;0.80;;
20065;SDS011;10193;48.884;9.182;2023-11-19T08:16:48;0.68;;;0.68;;
20065;SDS011;10193;48.884;9.182;2023-11-19T08:19:15;0.70;;;0.70;;
20065;SDS011;10193;48.884;9.182;2023-11-19T08:21:41;0.63;;;0.63;;
20065;SDS011;10193;48.884;9.182;2023-11-19T08:24:08;0.28;;;0.28;;
20065;SDS011;10193;48.884;9.182;2023-11-19T08:26:35;0.30;;;0.30;;
20065;SDS011;10193;48.884;9.182;2023-11-19T08:29:03;0.40;;;0.40;;
20065;SDS011;10193;48.884;9.182;2023-11-19T08:31:29;0.90;;;0.40;;
20065;SDS011;10193;48.884;9.182;2023-11-19T08:33:56;0.57;;;0.50;;
20065;SDS011;10193;48.884;9.182;2023-11-19T08:36:22;0.47;;;0.47;;
20065;SDS011;10193;48.884;9.182;2023-11-19T08:38:49;0.30;;;0.30;;
20065;SDS011;10193;48.884;9.182;2023-11-19T08:41:16;0.30;;;0.30;;
20065;SDS011;10193;48.884;9.182;2023-11-19T08:43:44;1.10;;;0.40;;
20065;SDS011;10193;48.884;9.182;2023-11-19T08:46:12;0.30;;;0.30;;
20065;SDS011;10193;48.884;9.182;2023-11-19T08:48:39;1.25;;;0.22;;
20065;SDS011;10193;48.884;9.182;2023-11-19T08:51:06;0.40;;;0.28;;
20065;SDS011;10193;48.884;9.182;2023-11-19T08:53:33;0.40;;;0.40;;
20065;SDS011;10193;48.884;9.182;2023-11-19T08:56:00;0.40;;;0.40;;
20065;SDS011;10193;48.884;9.182;2023-11-19T08:58:27;0.43;;;0.30;;
20065;SDS011;10193;48.884;9.182;2023-11-19T09:00:54;0.40;;;0.40;;
20065;SDS011;10193;48.884;9.182;2023-11-19T09:03:22;0.40;;;0.40;;
20065;SDS011;10193;48.884;9.182;2023-11-19T09:05:50;0.50;;;0.30;;
20065;SDS011;10193;48.884;9.182;2023-11-19T09:08:17;0.30;;;0.30;;
20065;SDS011;10193;48.884;9.182;2023-11-19T09:10:44;0.30;;;0.30;;
20065;SDS011;10193;48.884;9.182;2023-11-19T09:13:11;0.38;;;0.30;;
20065;SDS011;10193;48.884;9.182;2023-11-19T09:15:37;0.25;;;0.20;;
20065;SDS011;10193;48.884;9.182;2023-11-19T09:18:04;2.63;;;0.45;;
20065;SDS011;10193;48.884;9.182;2023-11-19T09:20:32;0.75;;;0.40;;
20065;SDS011;10193;48.884;9.182;2023-11-19T09:23:03;0.30;;;0.30;;
20065;SDS011;10193;48.884;9.182;2023-11-19T09:25:31;0.40;;;0.40;;
20065;SDS011;10193;48.884;9.182;2023-11-19T09:27:58;0.40;;;0.40;;
20065;SDS011;10193;48.884;9.182;2023-11-19T09:30:24;0.40;;;0.40;;
20065;SDS011;10193;48.884;9.182;2023-11-19T09:32:51;0.30;;;0.30;;
20065;SDS011;10193;48.884;9.182;2023-11-19T09:35:18;0.90;;;0.30;;
20065;SDS011;10193;48.884;9.182;2023-11-19T09:37:46;0.43;;;0.30;;
20065;SDS011;10193;48.884;9.182;2023-11-19T09:40:13;0.43;;;0.20;;
20065;SDS011;10193;48.884;9.182;2023-11-19T09:42:42;0.60;;;0.40;;
20065;SDS011;10193;48.884;9.182;2023-11-19T09:45:12;1.48;;;0.43;;
20065;SDS011;10193;48.884;9.182;2023-11-19T09:47:40;0.52;;;0.43;;
20065;SDS011;10193;48.884;9.182;2023-11-19T09:50:07;0.47;;;0.40;;
20065;SDS011;10193;48.884;9.182;2023-11-19T09:52:35;0.50;;;0.50;;
20065;SDS011;10193;48.884;9.182;2023-11-19T09:55:03;0.40;;;0.38;;
20065;SDS011;10193;48.884;9.182;2023-11-19T09:57:30;0.85;;;0.50;;
20065;SDS011;10193;48.884;9.182;2023-11-19T10:00:00;0.82;;;0.45;;
20065;SDS011;10193;48.884;9.182;2023-11-19T10:02:29;1.08;;;0.50;;
20065;SDS011;10193;48.884;9.182;2023-11-19T10:05:00;0.47;;;0.40;;
20065;SDS011;10193;48.884;9.182;2023-11-19T10:07:30;0.45;;;0.45;;
20065;SDS011;10193;48.884;9.182;2023-11-19T10:09:58;0.30;;;0.30;;
20065;SDS011;10193;48.884;9.182;2023-11-19T10:12:26;0.32;;;0.30;;
20065;SDS011;10193;48.884;9.182;2023-11-19T10:14:56;0.40;;;0.30;;
20065;SDS011;10193;48.884;9.182;2023-11-19T10:17:27;0.40;;;0.40;;
20065;SDS011;10193;48.884;9.182;2023-11-19T10:19:55;0.45;;;0.30;;
20065;SDS011;10193;48.884;9.182;2023-11-19T10:22:22;0.32;;;0.30;;
20065;SDS011;10193;48.884;9.182;2023-11-19T10:24:49;1.17;;;0.40;;
20065;SDS011;10193;48.884;9.182;2023-11-19T10:27:16;0.25;;;0.22;;
20065;SDS011;10193;48.884;9.182;2023-11-19T10:29:45;0.70;;;0.50;;
20065;SDS011;10193;48.884;9.182;2023-11-19T10:32:13;1.55;;;0.63;;
20065;SDS011;10193;48.884;9.182;2023-11-19T10:34:39;0.70;;;0.32;;
20065;SDS011;10193;48.884;9.182;2023-11-19T10:37:06;0.70;;;0.50;;
20065;SDS011;10193;48.884;9.182;2023-11-19T10:42:19;0.77;;;0.40;;
20065;SDS011;10193;48.884;9.182;2023-11-19T10:44:47;1.08;;;0.47;;
20065;SDS011;10193;48.884;9.182;2023-11-19T10:47:14;0.57;;;0.40;;
20065;SDS011;10193;48.884;9.182;2023-11-19T10:49:42;0.65;;;0.40;;
20065;SDS011;10193;48.884;9.182;2023-11-19T10:52:10;0.80;;;0.40;;
20065;SDS011;10193;48.884;9.182;2023-11-19T10:54:41;1.00;;;0.40;;
20065;SDS011;10193;48.884;9.182;2023-11-19T10:57:10;0.40;;;0.40;;
20065;SDS011;10193;48.884;9.182;2023-11-19T10:59:42;0.55;;;0.38;;
20065;SDS011;10193;48.884;9.182;2023-11-19T11:02:12;0.40;;;0.20;;
20065;SDS011;10193;48.884;9.182;2023-11-19T11:04:45;0.43;;;0.30;;
20065;SDS011;10193;48.884;9.182;2023-11-19T11:07:15;0.40;;;0.40;;
20065;SDS011;10193;48.884;9.182;2023-11-19T11:09:45;0.43;;;0.43;;
20065;SDS011;10193;48.884;9.182;2023-11-19T11:12:13;1.08;;;0.82;;
20065;SDS011;10193;48.884;9.182;2023-11-19T11:14:43;1.70;;;0.55;;
20065;SDS011;10193;48.884;9.182;2023-11-19T11:17:13;0.60;;;0.52;;
20065;SDS011;10193;48.884;9.182;2023-11-19T11:19:43;1.33;;;0.45;;
20065;SDS011;10193;48.884;9.182;2023-11-19T11:22:10;1.42;;;0.52;;
20065;SDS011;10193;48.884;9.182;2023-11-19T11:24:41;0.47;;;0.47;;
20065;SDS011;10193;48.884;9.182;2023-11-19T11:27:35;1.05;;;0.57;;
20065;SDS011;10193;48.884;9.182;2023-11-19T11:30:18;0.70;;;0.57;;
20065;SDS011;10193;48.884;9.182;2023-11-19T11:32:57;0.57;;;0.43;;
20065;SDS011;10193;48.884;9.182;2023-11-19T11:35:31;0.52;;;0.45;;
20065;SDS011;10193;48.884;9.182;2023-11-19T11:38:08;1.48;;;0.60;;
20065;SDS011;10193;48.884;9.182;2023-11-19T11:40:35;0.85;;;0.70;;
20065;SDS011;10193;48.884;9.182;2023-11-19T11:43:02;0.70;;;0.50;;
20065;SDS011;10193;48.884;9.182;2023-11-19T11:45:36;1.25;;;0.63;;
20065;SDS011;10193;48.884;9.182;2023-11-19T11:48:11;0.75;;;0.50;;
20065;SDS011;10193;48.884;9.182;2023-11-19T11:50:47;0.55;;;0.50;;
20065;SDS011;10193;48.884;9.182;2023-11-19T11:53:18;0.70;;;0.50;;
20065;SDS011;10193;48.884;9.182;2023-11-19T11:55:57;1.20;;;0.60;;
20065;SDS011;10193;48.884;9.182;2023-11-19T11:58:25;1.40;;;0.40;;
20065;SDS011;10193;48.884;9.182;2023-11-19T12:00:56;0.82;;;0.60;;
20065;SDS011;10193;48.884;9.182;2023-11-19T12:03:26;0.50;;;0.50;;
20065;SDS011;10193;48.884;9.182;2023-11-19T12:05:54;0.63;;;0.55;;
20065;SDS011;10193;48.884;9.182;2023-11-19T12:08:25;0.70;;;0.57;;
20065;SDS011;10193;48.884;9.182;2023-11-19T12:10:53;1.00;;;0.90;;
20065;SDS011;10193;48.884;9.182;2023-11-19T12:13:22;0.82;;;0.60;;
20065;SDS011;10193;48.884;9.182;2023-11-19T12:16:08;0.77;;;0.70;;
20065;SDS011;10193;48.884;9.182;2023-11-19T12:18:36;1.02;;;0.60;;
20065;SDS011;10193;48.884;9.182;2023-11-19T12:21:06;1.38;;;0.70;;
20065;SDS011;10193;48.884;9.182;2023-11-19T12:23:34;2.67;;;0.68;;
20065;SDS011;10193;48.884;9.182;2023-11-19T12:26:01;1.35;;;0.88;;
20065;SDS011;10193;48.884;9.182;2023-11-19T12:28:28;1.30;;;0.88;;
20065;SDS011;10193;48.884;9.182;2023-11-19T12:31:06;0.77;;;0.50;;
20065;SDS011;10193;48.884;9.182;2023-11-19T12:33:35;1.13;;;0.70;;
20065;SDS011;10193;48.884;9.182;2023-11-19T12:36:04;2.03;;;1.17;;
20065;SDS011;10193;48.884;9.182;2023-11-19T12:38:32;0.50;;;0.50;;
20065;SDS011;10193;48.884;9.182;2023-11-19T12:41:02;0.65;;;0.52;;
20065;SDS011;10193;48.884;9.182;2023-11-19T12:43:29;0.82;;;0.50;;
20065;SDS011;10193;48.884;9.182;2023-11-19T12:45:56;0.95;;;0.50;;
20065;SDS011;10193;48.884;9.182;2023-11-19T12:48:23;0.60;;;0.60;;
20065;SDS011;10193;48.884;9.182;2023-11-19T12:50:51;2.45;;;0.60;;
20065;SDS011;10193;48.884;9.182;2023-11-19T12:53:19;0.68;;;0.55;;
20065;SDS011;10193;48.884;9.182;2023-11-19T12:55:45;1.05;;;0.57;;
20065;SDS011;10193;48.884;9.182;2023-11-19T12:58:27;0.52;;;0.52;;
20065;SDS011;10193;48.884;9.182;2023-11-19T13:00:58;1.15;;;0.65;;
20065;SDS011;10193;48.884;9.182;2023-11-19T13:03:29;2.63;;;0.50;;
20065;SDS011;10193;48.884;9.182;2023-11-19T13:06:02;1.58;;;0.68;;
20065;SDS011;10193;48.884;9.182;2023-11-19T13:08:35;1.48;;;0.57;;
20065;SDS011;10193;48.884;9.182;2023-11-19T13:11:04;6.50;;;0.85;;
20065;SDS011;10193;48.884;9.182;2023-11-19T13:13:32;0.40;;;0.40;;
20065;SDS011;10193;48.884;9.182;2023-11-19T13:16:02;1.67;;;0.52;;
20065;SDS011;10193;48.884;9.182;2023-11-19T13:18:30;0.50;;;0.50;;
20065;SDS011;10193;48.884;9.182;2023-11-19T13:20:57;0.93;;;0.73;;
20065;SDS011;10193;48.884;9.182;2023-11-19T13:23:25;0.50;;;0.50;;
20065;SDS011;10193;48.884;9.182;2023-11-19T13:25:52;1.15;;;0.70;;
20065;SDS011;10193;48.884;9.182;2023-11-19T13:28:18;0.88;;;0.55;;
20065;SDS011;10193;48.884;9.182;2023-11-19T13:30:45;0.93;;;0.50;;
20065;SDS011;10193;48.884;9.182;2023-11-19T13:33:11;0.82;;;0.43;;
20065;SDS011;10193;48.884;9.182;2023-11-19T13:35:38;0.68;;;0.40;;
20065;SDS011;10193;48.884;9.182;2023-11-19T13:38:06;1.42;;;0.50;;
20065;SDS011;10193;48.884;9.182;2023-11-19T13:40:35;0.82;;;0.50;;
20065;SDS011;10193;48.884;9.182;2023-11-19T13:43:01;1.00;;;0.70;;
20065;SDS011;10193;48.884;9.182;2023-11-19T13:45:28;0.55;;;0.40;;
20065;SDS011;10193;48.884;9.182;2023-11-19T13:47:54;1.65;;;0.50;;
20065;SDS011;10193;48.884;9.182;2023-11-19T13:50:21;1.67;;;0.70;;
20065;SDS011;10193;48.884;9.182;2023-11-19T13:52:48;0.77;;;0.60;;
20065;SDS011;10193;48.884;9.182;2023-11-19T13:55:15;0.50;;;0.50;;
20065;SDS011;10193;48.884;9.182;2023-11-19T13:57:44;0.50;;;0.45;;
20065;SDS011;10193;48.884;9.182;2023-11-19T14:00:11;0.57;;;0.40;;
20065;SDS011;10193;48.884;9.182;2023-11-19T14:02:41;1.10;;;0.50;;
20065;SDS011;10193;48.884;9.182;2023-11-19T14:05:08;0.90;;;0.50;;
20065;SDS011;10193;48.884;9.182;2023-11-19T14:07:35;0.98;;;0.50;;
20065;SDS011;10193;48.884;9.182;2023-11-19T14:10:02;0.80;;;0.40;;
20065;SDS011;10193;48.884;9.182;2023-11-19T14:12:30;1.88;;;0.75;;
20065;SDS011;10193;48.884;9.182;2023-11-19T14:14:58;1.00;;;0.50;;
20065;SDS011;10193;48.884;9.182;2023-11-19T14:17:25;1.55;;;0.50;;
20065;SDS011;10193;48.884;9.182;2023-11-19T14:19:52;0.88;;;0.40;;
20065;SDS011;10193;48.884;9.182;2023-11-19T14:22:18;1.23;;;0.63;;
20065;SDS011;10193;48.884;9.182;2023-11-19T14:24:45;0.40;;;0.32;;
20065;SDS011;10193;48.884;9.182;2023-11-19T14:27:12;0.88;;;0.50;;
20065;SDS011;10193;48.884;9.182;2023-11-19T14:29:39;0.47;;;0.38;;
20065;SDS011;10193;48.884;9.182;2023-11-19T14:32:07;1.55;;;0.60;;
20065;SDS011;10193;48.884;9.182;2023-11-19T14:34:34;0.45;;;0.35;;
20065;SDS011;10193;48.884;9.182;2023-11-19T14:37:00;0.55;;;0.22;;
20065;SDS011;10193;48.884;9.182;2023-11-19T14:39:27;0.75;;;0.40;;
20065;SDS011;10193;48.884;9.182;2023-11-19T14:41:56;0.63;;;0.47;;
20065;SDS011;10193;48.884;9.182;2023-11-19T14:44:25;0.75;;;0.55;;
20065;SDS011;10193;48.884;9.182;2023-11-19T14:46:54;0.50;;;0.50;;
20065;SDS011;10193;48.884;9.182;2023-11-19T14:49:21;0.50;;;0.50;;
20065;SDS011;10193;48.884;9.182;2023-11-19T14:51:49;1.52;;;0.82;;
20065;SDS011;10193;48.884;9.182;2023-11-19T14:54:15;0.47;;;0.47;;
20065;SDS011;10193;48.884;9.182;2023-11-19T14:56:42;2.65;;;0.75;;